Time;durP1;ratioP1;P1;durP2;ratioP2;P2;SDS_P1;SDS_P2;PMS_P1;PMS_P2;Temp;Humidity;BMP_temperature;BMP_pressure;BME280_temperature;BME280_humidity;BME280_pressure;Samples;Min_cycle;Max_cycle;Signal;HPM_P1;HPM_P2
2021/04/30 00:00:36;;;;;;;26.52;16.02;;;;;;;8.02;nan;100466.81;5029032;28;20913;-50
2021/04/30 00:03:01;;;;;;;26.83;18.02;;;;;;;7.93;nan;100468.25;5030937;28;20032;-48
2021/04/30 00:05:29;;;;;;;26.13;16.05;;;;;;;7.68;nan;100472.00;5032158;28;20025;-48
2021/04/30 00:07:55;;;;;;;25.45;16.60;;;;;;;7.56;nan;100463.22;5037051;28;20033;-48
2021/04/30 00:10:21;;;;;;;24.35;15.95;;;;;;;7.68;nan;100464.00;5030555;28;20095;-48
2021/04/30 00:12:47;;;;;;;24.00;15.48;;;;;;;7.59;nan;100465.44;5034239;28;20036;-48
2021/04/30 00:15:13;;;;;;;26.92;16.85;;;;;;;7.69;nan;100478.13;5037582;28;20037;-47
2021/04/30 00:17:38;;;;;;;24.73;16.73;;;;;;;7.66;nan;100467.94;5031834;28;20195;-48
2021/04/30 00:20:04;;;;;;;26.30;16.02;;;;;;;7.66;nan;100465.28;5032456;28;20682;-49
2021/04/30 00:22:30;;;;;;;32.33;16.73;;;;;;;7.69;nan;100472.81;5033424;28;20704;-48
2021/04/30 00:24:57;;;;;;;28.65;16.85;;;;;;;7.38;nan;100480.19;5031975;28;20159;-48
2021/04/30 00:27:22;;;;;;;24.98;16.48;;;;;;;7.43;nan;100480.28;5037624;28;20086;-48
2021/04/30 00:29:48;;;;;;;24.88;16.02;;;;;;;7.49;nan;100489.19;5031308;28;21890;-48
2021/04/30 00:32:14;;;;;;;25.10;16.23;;;;;;;7.41;nan;100485.03;5042983;28;20051;-48
2021/04/30 00:34:41;;;;;;;25.10;14.38;;;;;;;7.53;nan;100485.00;5032758;28;20047;-48
2021/04/30 00:37:07;;;;;;;23.38;15.57;;;;;;;7.59;nan;100476.09;5032860;28;20079;-48
2021/04/30 00:39:33;;;;;;;25.98;17.08;;;;;;;7.48;nan;100485.72;5033490;28;20028;-48
2021/04/30 00:41:58;;;;;;;23.80;15.05;;;;;;;7.62;nan;100478.28;5033510;28;22084;-48
2021/04/30 00:44:24;;;;;;;23.90;15.55;;;;;;;7.54;nan;100490.13;5035043;28;20092;-48
2021/04/30 00:46:50;;;;;;;24.13;15.35;;;;;;;7.59;nan;100476.09;5033743;28;20159;-48
2021/04/30 00:49:16;;;;;;;25.05;15.48;;;;;;;7.51;nan;100487.09;5034230;28;20032;-49
2021/04/30 00:51:43;;;;;;;29.90;17.33;;;;;;;7.52;nan;100488.72;5030739;28;20025;-49
2021/04/30 00:54:08;;;;;;;24.20;16.27;;;;;;;7.53;nan;100485.81;5026387;28;20037;-48
2021/04/30 00:56:35;;;;;;;25.17;16.20;;;;;;;7.68;nan;100488.00;5032981;28;20072;-48
2021/04/30 00:59:01;;;;;;;25.80;15.70;;;;;;;7.84;nan;100491.78;5026824;28;20498;-48
2021/04/30 01:01:27;;;;;;;26.23;15.95;;;;;;;7.90;nan;100485.53;5035455;28;20021;-50
2021/04/30 01:03:53;;;;;;;24.85;15.43;;;;;;;8.19;nan;100494.34;5031398;28;20037;-48
2021/04/30 01:06:19;;;;;;;30.05;15.70;;;;;;;8.23;nan;100492.00;5037601;28;20491;-49
2021/04/30 01:08:45;;;;;;;22.42;13.00;;;;;;;8.31;nan;100488.97;5037095;28;20103;-49
2021/04/30 01:11:11;;;;;;;21.25;13.63;;;;;;;8.13;nan;100490.78;5036175;28;20068;-48
2021/04/30 01:13:36;;;;;;;23.30;15.20;;;;;;;8.11;nan;100490.22;5036329;28;20120;-48
2021/04/30 01:16:01;;;;;;;22.63;14.05;;;;;;;8.12;nan;100497.16;5035913;28;20442;-48
2021/04/30 01:18:27;;;;;;;19.63;12.43;;;;;;;8.19;nan;100495.16;5038972;28;20048;-49
2021/04/30 01:20:53;;;;;;;18.45;11.88;;;;;;;7.89;nan;100498.03;5032764;28;20025;-48
2021/04/30 01:23:18;;;;;;;21.13;13.27;;;;;;;8.05;nan;100490.34;5032409;28;20032;-49
2021/04/30 01:25:44;;;;;;;20.95;13.60;;;;;;;7.96;nan;100489.91;5037312;28;20475;-48
2021/04/30 01:28:09;;;;;;;17.70;12.05;;;;;;;7.81;nan;100487.75;5034522;28;20034;-48
2021/04/30 01:30:37;;;;;;;20.05;13.23;;;;;;;7.92;nan;100510.13;5034234;28;20116;-48
2021/04/30 01:33:13;;;;;;;21.65;12.77;;;;;;;7.86;nan;100498.50;5037229;28;20025;-48
2021/04/30 01:35:39;;;;;;;21.30;14.63;;;;;;;7.82;nan;100504.56;5035313;28;20055;-48
2021/04/30 01:38:04;;;;;;;18.38;12.38;;;;;;;7.85;nan;100506.75;5035805;28;20061;-48
2021/04/30 01:40:33;;;;;;;18.30;12.25;;;;;;;7.83;nan;100511.50;5039983;28;20535;-48
2021/04/30 01:43:07;;;;;;;17.35;11.93;;;;;;;7.78;nan;100511.41;5038507;28;20025;-48
2021/04/30 01:45:39;;;;;;;20.58;14.15;;;;;;;7.69;nan;100523.47;5039736;28;20081;-48
2021/04/30 01:48:12;;;;;;;18.10;12.38;;;;;;;7.85;nan;100520.91;5037843;28;20483;-48
2021/04/30 01:50:37;;;;;;;19.05;13.45;;;;;;;7.79;nan;100526.38;5032193;28;20032;-50
2021/04/30 01:53:06;;;;;;;19.63;13.05;;;;;;;7.73;nan;100532.66;5034924;28;20066;-47
2021/04/30 01:55:31;;;;;;;16.60;12.20;;;;;;;7.72;nan;100528.34;5038510;28;20039;-48
2021/04/30 01:57:57;;;;;;;16.65;11.85;;;;;;;7.62;nan;100546.78;5035785;28;20107;-48
2021/04/30 02:00:27;;;;;;;16.35;11.15;;;;;;;7.69;nan;100540.28;5029688;28;20370;-49
2021/04/30 02:02:55;;;;;;;21.23;12.60;;;;;;;7.63;nan;100538.56;5039256;28;20028;-48
2021/04/30 02:05:23;;;;;;;17.48;12.65;;;;;;;7.58;nan;100543.78;5037570;28;20499;-48
2021/04/30 02:07:49;;;;;;;18.45;11.55;;;;;;;7.48;nan;100536.38;5036486;28;20021;-49
2021/04/30 02:10:17;;;;;;;16.80;11.15;;;;;;;7.53;nan;100543.66;5035471;28;20030;-48
2021/04/30 02:12:44;;;;;;;18.45;10.35;;;;;;;7.60;nan;100544.38;5038518;28;20029;-48
2021/04/30 02:15:10;;;;;;;17.13;11.07;;;;;;;7.50;nan;100538.78;5035773;28;20391;-48
2021/04/30 02:17:37;;;;;;;17.98;12.13;;;;;;;7.46;nan;100543.78;5035174;28;20029;-49
2021/04/30 02:20:05;;;;;;;16.60;10.95;;;;;;;7.55;nan;100553.06;5033876;28;20479;-48
2021/04/30 02:22:31;;;;;;;13.23;9.85;;;;;;;7.50;nan;100550.28;5034919;28;20037;-48
2021/04/30 02:24:56;;;;;;;13.13;9.77;;;;;;;7.51;nan;100533.22;5035420;28;20088;-48
2021/04/30 02:27:22;;;;;;;17.77;10.65;;;;;;;7.50;nan;100544.94;5036009;28;20029;-48
2021/04/30 02:29:48;;;;;;;17.15;10.57;;;;;;;7.36;nan;100553.41;5036499;28;20029;-47
2021/04/30 02:32:13;;;;;;;16.05;10.52;;;;;;;7.44;nan;100548.53;5034837;28;20148;-48
2021/04/30 02:34:39;;;;;;;12.27;8.65;;;;;;;7.41;nan;100557.00;5035743;28;20032;-47
2021/04/30 02:37:14;;;;;;;15.77;10.20;;;;;;;7.38;nan;100556.66;5035743;28;20029;-48
2021/04/30 02:39:39;;;;;;;9.75;7.25;;;;;;;7.35;nan;100551.78;5036313;28;20029;-47
2021/04/30 02:42:05;;;;;;;12.95;8.63;;;;;;;7.27;nan;100560.94;5035635;28;20029;-48
2021/04/30 02:44:31;;;;;;;11.23;8.15;;;;;;;7.32;nan;100570.91;5034633;28;20479;-50
2021/04/30 02:46:56;;;;;;;11.63;8.48;;;;;;;7.28;nan;100563.38;5037105;28;20029;-49
2021/04/30 02:49:39;;;;;;;11.35;8.07;;;;;;;7.30;nan;100568.47;5034144;28;20029;-47
2021/04/30 02:52:06;;;;;;;10.88;8.07;;;;;;;7.33;nan;100561.84;5032679;28;20036;-48
2021/04/30 02:54:32;;;;;;;10.90;7.22;;;;;;;7.28;nan;100562.56;5036986;28;20024;-47
2021/04/30 02:56:58;;;;;;;11.35;7.70;;;;;;;7.30;nan;100568.47;5035579;28;20509;-48
2021/04/30 02:59:24;;;;;;;11.55;7.35;;;;;;;7.36;nan;100570.22;5035003;28;20032;-48
2021/04/30 03:01:50;;;;;;;12.13;7.28;;;;;;;7.24;nan;100580.06;5037167;28;20032;-47
2021/04/30 03:04:15;;;;;;;8.90;6.00;;;;;;;7.26;nan;100586.78;5036166;28;20036;-48
2021/04/30 03:06:41;;;;;;;9.60;6.93;;;;;;;7.31;nan;100588.75;5033941;28;20025;-48
2021/04/30 03:09:06;;;;;;;10.02;7.25;;;;;;;7.32;nan;100587.69;5033657;28;20033;-47
2021/04/30 03:11:32;;;;;;;9.07;6.60;;;;;;;7.16;nan;100593.69;5027666;28;20029;-47
2021/04/30 03:13:57;;;;;;;8.07;5.25;;;;;;;7.18;nan;100588.94;5031311;28;20037;-49
2021/04/30 03:16:23;;;;;;;8.50;6.13;;;;;;;7.11;nan;100594.38;5029646;28;20544;-47
2021/04/30 03:18:48;;;;;;;8.55;6.65;;;;;;;7.10;nan;100587.44;5030013;28;20024;-48
2021/04/30 03:21:14;;;;;;;7.97;6.13;;;;;;;7.11;nan;100594.38;5029860;28;20611;-49
2021/04/30 03:23:39;;;;;;;8.88;5.50;;;;;;;7.15;nan;100600.88;5031119;28;20018;-48
2021/04/30 03:26:05;;;;;;;9.10;6.05;;;;;;;7.13;nan;100602.16;5028195;28;20056;-48
2021/04/30 03:28:30;;;;;;;9.60;6.60;;;;;;;7.02;nan;100592.31;5029583;28;20040;-48
2021/04/30 03:30:56;;;;;;;7.75;6.10;;;;;;;7.08;nan;100594.03;5028259;28;20040;-48
2021/04/30 03:33:21;;;;;;;9.13;5.85;;;;;;;7.08;nan;100599.38;5030358;28;20509;-48
2021/04/30 03:35:47;;;;;;;7.90;6.35;;;;;;;7.11;nan;100599.72;5031295;28;20027;-49
2021/04/30 03:38:12;;;;;;;11.32;6.97;;;;;;;7.03;nan;100607.25;5026044;28;20538;-48
2021/04/30 03:40:38;;;;;;;10.85;6.50;;;;;;;7.07;nan;100603.88;5030368;28;20037;-47
2021/04/30 03:43:04;;;;;;;8.27;5.93;;;;;;;7.00;nan;100597.00;5028983;28;20029;-48
2021/04/30 03:45:29;;;;;;;10.10;6.18;;;;;;;7.03;nan;100600.06;5031134;28;20044;-48
2021/04/30 03:47:55;;;;;;;8.75;6.00;;;;;;;6.98;nan;100606.06;5027431;28;20045;-48
2021/04/30 03:50:20;;;;;;;9.23;5.95;;;;;;;7.10;nan;100607.94;5029059;28;20031;-49
2021/04/30 03:52:46;;;;;;;9.13;6.45;;;;;;;7.02;nan;100608.28;5029283;28;20598;-48
2021/04/30 03:55:11;;;;;;;9.90;6.53;;;;;;;6.99;nan;100606.84;5029113;28;20029;-47
2021/04/30 03:57:37;;;;;;;8.57;6.15;;;;;;;6.96;nan;100608.13;5029509;28;20104;-49
2021/04/30 04:00:04;;;;;;;9.52;6.72;;;;;;;6.93;nan;100589.94;5030978;28;20029;-48
2021/04/30 04:02:30;;;;;;;9.90;6.57;;;;;;;7.03;nan;100604.56;5039118;28;20033;-48
2021/04/30 04:04:55;;;;;;;8.95;6.10;;;;;;;6.92;nan;100622.13;5030520;28;20105;-48
2021/04/30 04:07:20;;;;;;;9.43;5.95;;;;;;;6.89;nan;100615.41;5028986;28;20033;-48
2021/04/30 04:09:46;;;;;;;9.32;6.53;;;;;;;7.02;nan;100621.59;5031104;28;20950;-48
2021/04/30 04:12:11;;;;;;;9.35;6.53;;;;;;;6.90;nan;100638.34;5031938;28;20033;-47
2021/04/30 04:14:37;;;;;;;9.20;6.13;;;;;;;6.92;nan;100641.59;5031896;28;20017;-48
2021/04/30 04:17:02;;;;;;;9.43;6.80;;;;;;;6.82;nan;100641.34;5027070;28;20463;-49
2021/04/30 04:19:28;;;;;;;9.40;6.32;;;;;;;7.00;nan;100652.97;5031878;28;20104;-48
2021/04/30 04:21:53;;;;;;;10.90;6.32;;;;;;;6.95;nan;100653.63;5027213;28;20029;-48
2021/04/30 04:24:19;;;;;;;8.60;5.97;;;;;;;6.95;nan;100654.44;5029861;28;20146;-48
2021/04/30 04:26:44;;;;;;;8.90;6.10;;;;;;;6.92;nan;100656.75;5033700;28;20037;-48
2021/04/30 04:29:10;;;;;;;11.77;6.82;;;;;;;6.98;nan;100674.50;5027038;28;20482;-48
2021/04/30 04:31:35;;;;;;;10.05;6.65;;;;;;;7.00;nan;100661.75;5030000;28;20045;-48
2021/04/30 04:34:02;;;;;;;8.75;6.22;;;;;;;7.11;nan;100669.00;5027541;28;20033;-49
2021/04/30 04:36:27;;;;;;;10.55;6.95;;;;;;;7.06;nan;100668.06;5030763;28;20025;-47
2021/04/30 04:38:52;;;;;;;11.00;6.32;;;;;;;7.10;nan;100674.53;5026338;28;20568;-49
2021/04/30 04:41:18;;;;;;;11.05;7.30;;;;;;;7.12;nan;100678.59;5027789;28;20163;-48
2021/04/30 04:43:43;;;;;;;9.90;5.47;;;;;;;7.06;nan;100670.72;5030475;28;20044;-48
2021/04/30 04:46:09;;;;;;;9.52;6.63;;;;;;;7.10;nan;100687.88;5028667;28;20029;-48
2021/04/30 04:48:34;;;;;;;10.02;6.75;;;;;;;7.08;nan;100690.75;5029086;28;20029;-47
2021/04/30 04:51:00;;;;;;;9.23;6.60;;;;;;;7.00;nan;100695.56;5033578;28;20120;-48
2021/04/30 04:53:26;;;;;;;10.02;7.35;;;;;;;6.98;nan;100698.47;5034645;28;21465;-48
2021/04/30 04:55:51;;;;;;;11.13;6.75;;;;;;;6.96;nan;100709.34;5029953;28;20029;-48
2021/04/30 04:58:17;;;;;;;11.80;7.50;;;;;;;7.06;nan;100708.81;5033761;28;20025;-47
2021/04/30 05:00:42;;;;;;;8.93;6.30;;;;;;;7.00;nan;100703.56;5033414;28;20021;-49
2021/04/30 05:03:08;;;;;;;9.90;7.13;;;;;;;6.87;nan;100707.25;5035173;28;20029;-48
2021/04/30 05:05:33;;;;;;;10.07;6.40;;;;;;;6.87;nan;100708.06;5032302;28;20624;-48
2021/04/30 05:07:59;;;;;;;10.27;6.63;;;;;;;6.88;nan;100727.50;5031254;28;20063;-49
2021/04/30 05:10:24;;;;;;;8.50;6.70;;;;;;;6.88;nan;100725.66;5032749;28;20091;-47
2021/04/30 05:12:50;;;;;;;9.45;7.25;;;;;;;6.95;nan;100736.22;5030898;28;20103;-49
2021/04/30 05:15:15;;;;;;;10.40;7.28;;;;;;;6.95;nan;100739.69;5033482;28;20124;-48
2021/04/30 05:17:43;;;;;;;9.00;6.80;;;;;;;6.93;nan;100741.75;5031489;28;20100;-48
2021/04/30 05:20:10;;;;;;;9.00;6.38;;;;;;;6.87;nan;100742.69;5031212;28;20029;-48
2021/04/30 05:22:38;;;;;;;11.07;6.50;;;;;;;6.96;nan;100743.97;5035451;28;20108;-48
2021/04/30 05:25:05;;;;;;;9.25;6.00;;;;;;;7.07;nan;100754.94;5032031;28;20036;-48
2021/04/30 05:27:30;;;;;;;9.10;6.38;;;;;;;6.96;nan;100761.81;5039209;28;20033;-48
2021/04/30 05:29:56;;;;;;;10.52;6.22;;;;;;;7.03;nan;100770.56;5037166;28;20078;-48
2021/04/30 05:32:21;;;;;;;9.63;6.13;;;;;;;7.13;nan;100780.66;5031060;28;20063;-48
2021/04/30 05:34:47;;;;;;;9.05;5.70;;;;;;;7.23;nan;100788.94;5033136;28;20601;-48
2021/04/30 05:37:12;;;;;;;6.57;4.60;;;;;;;7.28;nan;100786.41;5031801;28;20037;-49
2021/04/30 05:39:38;;;;;;;7.72;5.20;;;;;;;7.19;nan;100793.13;5033547;28;20120;-49
2021/04/30 05:42:04;;;;;;;7.55;4.68;;;;;;;7.24;nan;100802.06;5030345;28;20021;-48
2021/04/30 05:44:29;;;;;;;6.95;4.20;;;;;;;6.92;nan;100795.25;5035093;28;20028;-48
2021/04/30 05:46:55;;;;;;;6.97;3.90;;;;;;;6.85;nan;100799.88;5033435;28;20443;-47
2021/04/30 05:49:20;;;;;;;5.22;3.65;;;;;;;6.66;nan;100815.84;5033601;28;20033;-48
2021/04/30 05:51:46;;;;;;;4.93;3.28;;;;;;;6.32;nan;100806.53;5037457;28;20033;-48
2021/04/30 05:54:11;;;;;;;4.68;3.72;;;;;;;6.31;nan;100817.41;5031927;28;20074;-48
2021/04/30 05:56:38;;;;;;;8.10;4.15;;;;;;;6.05;nan;100837.03;5030134;28;20029;-48
2021/04/30 05:59:04;;;;;;;4.93;3.63;;;;;;;6.09;nan;100832.91;5032142;28;20442;-47
2021/04/30 06:01:29;;;;;;;5.10;3.63;;;;;;;6.13;nan;100834.13;5031884;28;20021;-47
2021/04/30 06:03:55;;;;;;;6.03;3.85;;;;;;;6.21;nan;100848.97;5030181;28;20487;-49
2021/04/30 06:06:21;;;;;;;6.93;4.47;;;;;;;6.11;nan;100848.66;5032206;28;20523;-48
2021/04/30 06:08:46;;;;;;;5.05;4.43;;;;;;;6.04;nan;100848.69;5038805;28;21532;-47
2021/04/30 06:11:12;;;;;;;4.53;3.92;;;;;;;6.22;nan;100846.09;5035794;28;20064;-48
2021/04/30 06:13:37;;;;;;;5.43;3.85;;;;;;;6.28;nan;100850.59;5032067;28;20036;-48
2021/04/30 06:16:04;;;;;;;5.47;3.80;;;;;;;6.39;nan;100856.22;5029674;28;20024;-47
2021/04/30 06:18:30;;;;;;;6.28;3.88;;;;;;;6.34;nan;100855.03;5032788;28;20021;-48
2021/04/30 06:20:55;;;;;;;5.35;3.75;;;;;;;6.42;nan;100867.22;5027741;28;20101;-48
2021/04/30 06:23:21;;;;;;;4.95;3.78;;;;;;;6.58;nan;100868.53;5033456;28;20182;-48
2021/04/30 06:25:46;;;;;;;6.35;3.70;;;;;;;6.76;nan;100870.41;5030797;28;20031;-48
2021/04/30 06:28:12;;;;;;;4.75;3.80;;;;;;;6.42;nan;100885.88;5030072;28;20742;-48
2021/04/30 06:30:38;;;;;;;5.20;3.42;;;;;;;6.51;nan;100887.25;5032880;28;20048;-48
2021/04/30 06:33:08;;;;;;;5.30;3.88;;;;;;;6.62;nan;100893.69;5030143;28;20040;-49
2021/04/30 06:35:33;;;;;;;5.03;3.70;;;;;;;6.62;nan;100907.00;5027356;28;20025;-48
2021/04/30 06:37:59;;;;;;;4.88;3.53;;;;;;;6.56;nan;100907.88;5027264;28;20032;-48
2021/04/30 06:40:24;;;;;;;4.43;3.58;;;;;;;6.47;nan;100919.84;5032099;28;20483;-48
2021/04/30 06:42:50;;;;;;;6.03;3.63;;;;;;;6.22;nan;100920.59;5030265;28;20033;-49
2021/04/30 06:45:15;;;;;;;5.00;3.03;;;;;;;6.36;nan;100919.50;5029328;28;20043;-47
2021/04/30 06:47:41;;;;;;;5.50;3.50;;;;;;;6.22;nan;100920.59;5028877;28;20117;-50
2021/04/30 06:50:07;;;;;;;4.85;3.28;;;;;;;6.11;nan;100923.16;5030713;28;20059;-48
2021/04/30 06:52:33;;;;;;;6.57;4.20;;;;;;;6.22;nan;100930.44;5034291;28;20099;-48
2021/04/30 06:54:58;;;;;;;7.07;4.20;;;;;;;6.30;nan;100938.19;5029934;28;20037;-47
2021/04/30 06:57:25;;;;;;;6.63;4.28;;;;;;;6.07;nan;100946.69;5030969;28;20029;-49
2021/04/30 06:59:50;;;;;;;6.65;3.88;;;;;;;6.03;nan;100948.97;5025639;28;20110;-49
2021/04/30 07:02:16;;;;;;;5.53;3.60;;;;;;;6.23;nan;100967.47;5027670;28;20445;-50
2021/04/30 07:04:41;;;;;;;6.70;4.18;;;;;;;6.22;nan;100963.19;5026298;28;20039;-48
2021/04/30 07:07:07;;;;;;;5.88;4.00;;;;;;;6.32;nan;100952.06;5043993;28;20037;-48
2021/04/30 07:09:32;;;;;;;6.68;4.25;;;;;;;6.35;nan;100956.97;5025280;28;20037;-47
2021/04/30 07:11:58;;;;;;;6.13;3.65;;;;;;;6.53;nan;100962.38;5023641;28;20094;-50
2021/04/30 07:14:24;;;;;;;7.03;3.67;;;;;;;6.44;nan;100960.97;5026562;28;20030;-48
2021/04/30 07:16:52;;;;;;;5.15;4.03;;;;;;;6.20;nan;100975.88;5034503;28;20055;-49
2021/04/30 07:19:18;;;;;;;6.50;4.40;;;;;;;5.93;nan;100985.84;5025705;28;20155;-49
2021/04/30 07:21:43;;;;;;;8.18;4.90;;;;;;;6.01;nan;100982.13;5027497;28;20029;-47
2021/04/30 07:24:09;;;;;;;6.05;4.40;;;;;;;5.91;nan;100990.53;5027791;28;20438;-48
2021/04/30 07:26:35;;;;;;;7.10;4.50;;;;;;;6.14;nan;100994.56;5027349;28;20116;-48
2021/04/30 07:29:00;;;;;;;7.15;4.35;;;;;;;6.07;nan;101005.22;5026320;28;20101;-49
2021/04/30 07:31:26;;;;;;;6.70;4.22;;;;;;;5.92;nan;101021.44;5025204;28;20975;-48
2021/04/30 07:33:52;;;;;;;7.45;4.72;;;;;;;5.91;nan;101008.34;5027016;28;20033;-48
2021/04/30 07:36:17;;;;;;;7.15;4.45;;;;;;;5.90;nan;101012.03;5027584;28;20075;-48
2021/04/30 07:38:43;;;;;;;10.07;5.20;;;;;;;6.03;nan;101023.44;5027334;28;20033;-48
2021/04/30 07:41:10;;;;;;;8.13;4.65;;;;;;;6.01;nan;101016.69;5027361;28;20017;-48
2021/04/30 07:43:36;;;;;;;7.10;4.45;;;;;;;5.94;nan;101022.06;5027595;28;20859;-48
2021/04/30 07:46:03;;;;;;;9.82;4.60;;;;;;;6.14;nan;101023.81;5026522;28;20736;-48
2021/04/30 07:48:29;;;;;;;5.80;3.40;;;;;;;6.10;nan;101031.38;5030024;28;20026;-48
2021/04/30 07:50:56;;;;;;;6.70;4.18;;;;;;;6.20;nan;101033.59;5026812;28;20902;-48
2021/04/30 07:53:21;;;;;;;5.45;3.63;;;;;;;6.22;nan;101036.88;5028387;28;20044;-48
2021/04/30 07:55:47;;;;;;;6.60;4.47;;;;;;;6.22;nan;101032.34;5031088;28;20033;-47
2021/04/30 07:58:13;;;;;;;12.15;4.78;;;;;;;6.27;nan;101034.38;5027682;28;20021;-48
2021/04/30 08:00:38;;;;;;;9.20;3.85;;;;;;;6.26;nan;101041.53;5033636;28;20067;-48
2021/04/30 08:03:04;;;;;;;7.22;4.55;;;;;;;6.38;nan;101043.53;5024723;28;20021;-49
2021/04/30 08:05:29;;;;;;;7.85;4.50;;;;;;;6.49;nan;101058.84;5033199;28;20038;-48
2021/04/30 08:08:04;;;;;;;5.82;3.92;;;;;;;6.41;nan;101059.06;5031086;28;20098;-51
2021/04/30 08:10:31;;;;;;;8.93;3.78;;;;;;;6.78;nan;101057.41;5039959;28;20033;-48
2021/04/30 08:12:59;;;;;;;11.48;4.32;;;;;;;6.98;nan;101055.44;5033937;28;20085;-48
2021/04/30 08:15:25;;;;;;;7.80;4.25;;;;;;;6.98;nan;101056.25;5034788;28;20302;-47
2021/04/30 08:17:51;;;;;;;4.88;3.47;;;;;;;6.94;nan;101081.69;5034761;28;20025;-48
2021/04/30 08:20:16;;;;;;;4.85;3.80;;;;;;;7.04;nan;101080.41;5030966;28;21373;-49
2021/04/30 08:22:42;;;;;;;8.10;4.53;;;;;;;7.13;nan;101087.09;5035159;28;20032;-47
2021/04/30 08:25:08;;;;;;;9.38;4.95;;;;;;;7.26;nan;101082.47;5035459;28;20036;-49
2021/04/30 08:27:35;;;;;;;6.30;4.32;;;;;;;7.26;nan;101087.00;5029498;28;20086;-48
2021/04/30 08:30:01;;;;;;;8.45;4.75;;;;;;;7.28;nan;101101.72;5030709;28;20430;-50
2021/04/30 08:32:26;;;;;;;6.43;4.10;;;;;;;7.18;nan;101090.75;5031908;28;20033;-49
2021/04/30 08:34:54;;;;;;;6.63;4.03;;;;;;;7.20;nan;101101.19;5030819;28;20024;-48
2021/04/30 08:37:20;;;;;;;10.13;3.92;;;;;;;7.33;nan;101098.41;5031012;28;20560;-49
2021/04/30 08:39:45;;;;;;;7.78;4.90;;;;;;;7.09;nan;101118.69;5032538;28;20041;-48
2021/04/30 08:42:11;;;;;;;5.47;3.65;;;;;;;7.25;nan;101101.34;5032363;28;20033;-49
2021/04/30 08:44:37;;;;;;;8.63;4.47;;;;;;;7.17;nan;101128.25;5028882;28;20107;-49
2021/04/30 08:47:03;;;;;;;6.28;3.72;;;;;;;7.09;nan;101139.19;5029662;28;20036;-49
2021/04/30 08:49:29;;;;;;;9.07;4.32;;;;;;;7.09;nan;101137.34;5036403;28;20029;-50
2021/04/30 08:51:54;;;;;;;7.28;4.10;;;;;;;7.37;nan;101136.13;5030455;28;20701;-48
2021/04/30 08:54:20;;;;;;;12.73;5.13;;;;;;;7.56;nan;101127.97;5031255;28;20041;-48
2021/04/30 08:56:52;;;;;;;8.25;4.10;;;;;;;7.79;nan;101119.31;5032144;28;20033;-48
2021/04/30 08:59:20;;;;;;;7.03;4.80;;;;;;;7.97;nan;101131.88;5031415;28;20021;-48
2021/04/30 09:01:46;;;;;;;6.95;3.63;;;;;;;8.08;nan;101127.66;5033555;28;20029;-48
2021/04/30 09:04:12;;;;;;;8.45;4.10;;;;;;;8.12;nan;101139.50;5034883;28;20441;-50
2021/04/30 09:06:39;;;;;;;8.32;4.05;;;;;;;8.21;nan;101134.69;5033200;28;20037;-47
2021/04/30 09:09:07;;;;;;;5.13;3.63;;;;;;;7.89;nan;101140.13;5032316;28;20376;-48
2021/04/30 09:11:34;;;;;;;7.70;4.65;;;;;;;8.05;nan;101131.56;5030267;28;20091;-48
2021/04/30 09:14:29;;;;;;;6.60;3.85;;;;;;;8.19;nan;101132.25;5031493;28;20091;-48
2021/04/30 09:17:15;;;;;;;6.55;4.07;;;;;;;8.00;nan;101139.44;5030559;28;20535;-48
2021/04/30 09:20:02;;;;;;;8.20;4.18;;;;;;;7.96;nan;101151.59;5034380;28;20033;-49
2021/04/30 09:22:35;;;;;;;8.48;4.82;;;;;;;7.90;nan;101155.16;5034721;28;20029;-48
2021/04/30 09:25:06;;;;;;;8.63;4.65;;;;;;;7.90;nan;101155.16;5035563;28;20391;-49
2021/04/30 09:27:39;;;;;;;8.65;5.03;;;;;;;7.81;nan;101162.59;5035366;28;20025;-48
2021/04/30 09:30:25;;;;;;;7.68;4.75;;;;;;;8.04;nan;101155.81;5033464;28;20116;-48
2021/04/30 09:33:14;;;;;;;6.82;5.45;;;;;;;7.79;nan;101167.34;5030363;28;20540;-48
2021/04/30 09:35:42;;;;;;;9.98;4.60;;;;;;;8.06;nan;101169.75;5030460;28;20028;-48
2021/04/30 09:38:31;;;;;;;9.20;4.35;;;;;;;8.01;nan;101165.06;5030294;28;20040;-48
2021/04/30 09:41:17;;;;;;;10.38;5.38;;;;;;;7.81;nan;101164.44;5035627;28;20041;-48
2021/04/30 09:43:49;;;;;;;10.80;4.35;;;;;;;8.03;nan;101167.50;5032769;28;20072;-48
2021/04/30 09:46:33;;;;;;;8.27;4.10;;;;;;;8.14;nan;101169.47;5026387;28;20916;-48
2021/04/30 09:49:13;;;;;;;7.05;4.40;;;;;;;8.24;nan;101179.59;5032111;28;20076;-48
2021/04/30 09:51:53;;;;;;;5.75;4.25;;;;;;;8.22;nan;101177.16;5029804;28;20022;-48
2021/04/30 09:54:29;;;;;;;9.45;4.97;;;;;;;8.36;nan;101183.22;5031769;28;20036;-48
2021/04/30 09:57:07;;;;;;;8.05;4.75;;;;;;;8.44;nan;101181.09;5029501;28;20032;-48
2021/04/30 09:59:33;;;;;;;8.52;4.95;;;;;;;8.52;nan;101187.97;5031103;28;20455;-48
2021/04/30 10:02:09;;;;;;;7.25;5.45;;;;;;;8.52;nan;101197.81;5027724;28;20135;-48
2021/04/30 10:04:40;;;;;;;14.85;5.22;;;;;;;8.47;nan;101187.81;5027222;28;20060;-48
2021/04/30 10:07:07;;;;;;;9.13;4.45;;;;;;;8.29;nan;101196.63;5031911;28;20091;-49
2021/04/30 10:09:34;;;;;;;11.82;5.57;;;;;;;8.37;nan;101208.88;5027753;28;20033;-48
2021/04/30 10:12:20;;;;;;;8.38;4.28;;;;;;;8.28;nan;101207.53;5032574;28;20509;-48
2021/04/30 10:14:47;;;;;;;10.23;4.75;;;;;;;8.23;nan;101215.34;5032399;28;20037;-48
2021/04/30 10:17:16;;;;;;;9.60;4.85;;;;;;;8.19;nan;101218.47;5031871;28;20045;-50
2021/04/30 10:19:43;;;;;;;6.53;4.22;;;;;;;7.98;nan;101215.41;5058178;23;20063;-79
2021/04/30 10:22:13;;;;;;;8.95;4.35;;;;;;;7.99;nan;101219.69;5047954;28;20072;-78
2021/04/30 10:24:43;;;;;;;6.88;4.07;;;;;;;8.15;nan;101225.28;5045367;28;20487;-78
2021/04/30 10:27:12;;;;;;;4.97;3.45;;;;;;;8.34;nan;101228.81;5045728;28;20059;-78
2021/04/30 10:29:39;;;;;;;7.95;3.30;;;;;;;8.62;nan;101224.84;5046630;28;20021;-78
2021/04/30 10:32:05;;;;;;;6.30;3.67;;;;;;;8.59;nan;101227.94;5043118;28;20075;-78
2021/04/30 10:34:39;;;;;;;6.22;3.38;;;;;;;8.56;nan;101233.72;5044647;28;20029;-79
2021/04/30 10:37:05;;;;;;;3.80;2.72;;;;;;;8.72;nan;101233.94;5049073;28;20107;-78
2021/04/30 10:39:36;;;;;;;5.22;3.33;;;;;;;8.64;nan;101231.59;5044693;28;20110;-78
2021/04/30 10:42:12;;;;;;;3.72;2.90;;;;;;;8.59;nan;101235.94;5049113;28;20036;-79
2021/04/30 10:44:43;;;;;;;6.40;3.15;;;;;;;8.69;nan;101231.72;5047054;28;20031;-79
2021/04/30 10:47:12;;;;;;;5.55;3.40;;;;;;;8.47;nan;101238.56;5042454;28;20021;-79
2021/04/30 10:49:41;;;;;;;6.97;3.80;;;;;;;8.42;nan;101238.38;5046656;28;20021;-78
2021/04/30 10:52:08;;;;;;;6.35;3.33;;;;;;;8.05;nan;101238.31;5044872;28;20037;-79
2021/04/30 10:54:34;;;;;;;4.70;3.03;;;;;;;8.25;nan;101246.13;5041103;28;20087;-78
2021/04/30 10:57:13;;;;;;;5.88;3.38;;;;;;;7.88;nan;101245.22;5047757;28;20025;-78
2021/04/30 10:59:39;;;;;;;5.25;3.35;;;;;;;8.15;nan;101251.97;5041403;28;20095;-78
2021/04/30 11:02:34;;;;;;;5.38;3.13;;;;;;;8.16;nan;101258.94;5044395;28;20029;-79
2021/04/30 11:05:12;;;;;;;6.10;3.38;;;;;;;8.37;nan;101259.59;5035506;28;20035;-79
2021/04/30 11:07:42;;;;;;;4.57;3.13;;;;;;;8.47;nan;101260.75;5043918;28;20016;-78
2021/04/30 11:10:23;;;;;;;4.30;2.95;;;;;;;8.57;nan;101264.75;5038613;28;20036;-79
2021/04/30 11:13:16;;;;;;;4.82;2.88;;;;;;;8.14;nan;101253.03;5042757;28;20029;-78
2021/04/30 11:15:44;;;;;;;4.68;2.50;;;;;;;8.04;nan;101266.03;5043132;28;20059;-79
2021/04/30 11:18:11;;;;;;;6.78;3.20;;;;;;;8.03;nan;101260.91;5042728;28;20094;-78
2021/04/30 11:20:41;;;;;;;5.63;3.10;;;;;;;8.07;nan;101262.91;5039116;28;20800;-78
2021/04/30 11:23:23;;;;;;;5.35;2.70;;;;;;;8.00;nan;101267.50;5058667;28;20032;-79
2021/04/30 11:25:58;;;;;;;5.53;2.80;;;;;;;8.18;nan;101270.22;5041300;28;20052;-79
2021/04/30 11:28:23;;;;;;;5.70;2.85;;;;;;;8.07;nan;101270.94;5055447;28;20082;-79
2021/04/30 11:31:07;;;;;;;3.30;2.55;;;;;;;8.20;nan;101264.66;5044069;28;20041;-79
2021/04/30 11:33:44;;;;;;;6.53;3.00;;;;;;;8.25;nan;101261.31;5045762;28;20033;-78
2021/04/30 11:36:12;;;;;;;5.00;2.83;;;;;;;8.33;nan;101266.41;5041698;28;20068;-78
2021/04/30 11:38:47;;;;;;;5.30;2.55;;;;;;;8.41;nan;101268.81;5040792;28;20090;-79
2021/04/30 11:41:14;;;;;;;5.63;2.38;;;;;;;8.50;nan;101275.50;5045636;28;20032;-79
2021/04/30 11:43:49;;;;;;;5.22;2.90;;;;;;;8.38;nan;101271.91;5046418;28;20047;-79
2021/04/30 11:46:14;;;;;;;7.55;3.00;;;;;;;8.55;nan;101270.31;5046036;28;20666;-79
2021/04/30 11:48:43;;;;;;;3.97;2.33;;;;;;;8.63;nan;101269.22;5041624;28;20033;-79